Vera Bisso — WDC3027 — position and weather

sailwx.info

Track history (hours):
 
Tides and Currents Weather Stations Pressure Air Temp Water Temp Dewpoint Dewpoint Depression Visibility Wind Speed Wind Dir Waves Ship Positions

Vera Bisso

Owner: E.N. Bisso & Son, Inc, New Orleans, LA. More information available from US FCC via Universal Licensing System and Coast Guard Vessel Documentation Center.

Last reported at 2015-May-14 00:28 UTC. Time now 2015-May-22 14:40 UTC.
Position N 29°55' W 090°08'.
Warning: this ship's position is 8 days out of date.

Length 30 m; draft 6 m.

Type: Tug. MMSI: 367001730.

Date/timePositionNaut miles runAvg speedWind from/ knotsBaromVisibWave heightAir tempDewpointWater temp
2015-May-14 00:28N 29°55' W 090°08'0 0.0
2015-May-13 23:30N 29°55' W 090°08'0 0.0
2015-May-13 22:30N 29°55' W 090°08'0 0.0
2015-May-13 21:20N 29°55' W 090°08'0 0.0
2015-May-13 20:03N 29°55' W 090°08'0 0.0
2015-May-13 07:18N 29°55' W 090°08'3 0.2
2015-May-12 18:24N 29°55' W 090°05'3 0.4
2015-May-12 11:16N 29°56' W 090°08'0 0.0
2015-May-12 09:19N 29°55' W 090°08'0 0.0
2015-May-12 07:21N 29°55' W 090°08'  
2015-May-09 00:32N 29°55' W 090°08'3 2.4
2015-May-08 23:28N 29°55' W 090°05'1 1.1
2015-May-08 22:33N 29°55' W 090°04'0 0.0
2015-May-08 21:31N 29°55' W 090°04'0 0.0
2015-May-08 20:32N 29°55' W 090°04'1 0.6
2015-May-08 19:27N 29°55' W 090°04'0 0.0
2015-May-08 18:25N 29°55' W 090°04'2 1.9
2015-May-08 17:11N 29°57' W 090°02'2 2.9
2015-May-08 16:30N 29°56' W 090°03'4 3.8
2015-May-08 15:26N 29°55' W 090°08'0 0.0
2015-May-08 12:18N 29°55' W 090°08'0 0.0
2015-May-08 11:07N 29°56' W 090°08'  
Track history (hours):
 
Tides and Currents Weather Stations Pressure Air Temp Water Temp Dewpoint Dewpoint Depression Visibility Wind Speed Wind Dir Waves Ship Positions

Vera Bisso

Owner: E.N. Bisso & Son, Inc, New Orleans, LA. More information available from US FCC via Universal Licensing System and Coast Guard Vessel Documentation Center.

Last reported at 2015-May-14 00:28 UTC. Time now 2015-May-22 14:40 UTC.
Position N 29°55' W 090°08'.
Warning: this ship's position is 8 days out of date.

Length 30 m; draft 6 m.

Type: Tug. MMSI: 367001730.

Date/timePositionNaut miles runAvg speedWind from/ knotsBaromVisibWave heightAir tempDewpointWater temp
2015-May-14 00:28N 29°55' W 090°08'0 0.0
2015-May-13 23:30N 29°55' W 090°08'0 0.0
2015-May-13 22:30N 29°55' W 090°08'0 0.0
2015-May-13 21:20N 29°55' W 090°08'0 0.0
2015-May-13 20:03N 29°55' W 090°08'0 0.0
2015-May-13 07:18N 29°55' W 090°08'3 0.2
2015-May-12 18:24N 29°55' W 090°05'3 0.4
2015-May-12 11:16N 29°56' W 090°08'0 0.0
2015-May-12 09:19N 29°55' W 090°08'0 0.0
2015-May-12 07:21N 29°55' W 090°08'  
2015-May-09 00:32N 29°55' W 090°08'3 2.4
2015-May-08 23:28N 29°55' W 090°05'1 1.1
2015-May-08 22:33N 29°55' W 090°04'0 0.0
2015-May-08 21:31N 29°55' W 090°04'0 0.0
2015-May-08 20:32N 29°55' W 090°04'1 0.6
2015-May-08 19:27N 29°55' W 090°04'0 0.0
2015-May-08 18:25N 29°55' W 090°04'2 1.9
2015-May-08 17:11N 29°57' W 090°02'2 2.9
2015-May-08 16:30N 29°56' W 090°03'4 3.8
2015-May-08 15:26N 29°55' W 090°08'0 0.0
2015-May-08 12:18N 29°55' W 090°08'0 0.0
2015-May-08 11:07N 29°56' W 090°08'  

Dump ship's entire track history